sensor_id;sensor_type;location;lat;lon;timestamp;P1;durP1;ratioP1;P2;durP2;ratioP2
82296;SDS011;71899;51.992;8.648;2023-09-30T00:01:20;24.63;;;5.78;;
82296;SDS011;71899;51.992;8.648;2023-09-30T00:03:47;20.42;;;6.60;;
82296;SDS011;71899;51.992;8.648;2023-09-30T00:06:12;18.70;;;5.30;;
82296;SDS011;71899;51.992;8.648;2023-09-30T00:08:38;24.38;;;4.68;;
82296;SDS011;71899;51.992;8.648;2023-09-30T00:11:05;14.63;;;4.40;;
82296;SDS011;71899;51.992;8.648;2023-09-30T00:13:30;16.50;;;4.22;;
82296;SDS011;71899;51.992;8.648;2023-09-30T00:15:57;18.33;;;5.65;;
82296;SDS011;71899;51.992;8.648;2023-09-30T00:18:22;22.90;;;5.88;;
82296;SDS011;71899;51.992;8.648;2023-09-30T00:20:48;25.58;;;6.00;;
82296;SDS011;71899;51.992;8.648;2023-09-30T00:23:13;23.33;;;6.53;;
82296;SDS011;71899;51.992;8.648;2023-09-30T00:25:38;22.15;;;5.68;;
82296;SDS011;71899;51.992;8.648;2023-09-30T00:28:04;18.95;;;5.50;;
82296;SDS011;71899;51.992;8.648;2023-09-30T00:30:30;23.52;;;6.55;;
82296;SDS011;71899;51.992;8.648;2023-09-30T00:32:55;31.48;;;6.07;;
82296;SDS011;71899;51.992;8.648;2023-09-30T00:35:20;26.58;;;5.95;;
82296;SDS011;71899;51.992;8.648;2023-09-30T00:37:45;32.03;;;7.45;;
82296;SDS011;71899;51.992;8.648;2023-09-30T00:40:11;21.65;;;7.50;;
82296;SDS011;71899;51.992;8.648;2023-09-30T00:42:40;27.10;;;6.35;;
82296;SDS011;71899;51.992;8.648;2023-09-30T00:45:07;27.17;;;6.70;;
82296;SDS011;71899;51.992;8.648;2023-09-30T00:47:35;23.42;;;6.22;;
82296;SDS011;71899;51.992;8.648;2023-09-30T00:50:01;25.58;;;6.78;;
82296;SDS011;71899;51.992;8.648;2023-09-30T00:52:28;37.20;;;6.75;;
82296;SDS011;71899;51.992;8.648;2023-09-30T00:54:55;26.50;;;5.30;;
82296;SDS011;71899;51.992;8.648;2023-09-30T00:57:20;34.22;;;6.32;;
82296;SDS011;71899;51.992;8.648;2023-09-30T00:59:47;32.35;;;5.38;;
82296;SDS011;71899;51.992;8.648;2023-09-30T01:02:15;28.98;;;6.90;;
82296;SDS011;71899;51.992;8.648;2023-09-30T01:04:41;17.33;;;5.00;;
82296;SDS011;71899;51.992;8.648;2023-09-30T01:07:07;32.85;;;7.63;;
82296;SDS011;71899;51.992;8.648;2023-09-30T01:09:33;24.92;;;5.40;;
82296;SDS011;71899;51.992;8.648;2023-09-30T01:11:59;29.67;;;6.65;;
82296;SDS011;71899;51.992;8.648;2023-09-30T01:14:29;37.15;;;9.27;;
82296;SDS011;71899;51.992;8.648;2023-09-30T01:16:55;30.67;;;6.28;;
82296;SDS011;71899;51.992;8.648;2023-09-30T01:19:21;41.20;;;5.65;;
82296;SDS011;71899;51.992;8.648;2023-09-30T01:21:50;25.67;;;6.07;;
82296;SDS011;71899;51.992;8.648;2023-09-30T01:24:21;26.70;;;6.57;;
82296;SDS011;71899;51.992;8.648;2023-09-30T01:26:47;39.60;;;7.07;;
82296;SDS011;71899;51.992;8.648;2023-09-30T01:29:12;26.13;;;6.43;;
82296;SDS011;71899;51.992;8.648;2023-09-30T01:31:37;26.10;;;7.82;;
82296;SDS011;71899;51.992;8.648;2023-09-30T01:34:04;21.65;;;5.93;;
82296;SDS011;71899;51.992;8.648;2023-09-30T01:36:30;31.20;;;8.05;;
82296;SDS011;71899;51.992;8.648;2023-09-30T01:38:55;23.88;;;6.10;;
82296;SDS011;71899;51.992;8.648;2023-09-30T01:41:21;31.88;;;6.15;;
82296;SDS011;71899;51.992;8.648;2023-09-30T01:43:47;29.98;;;6.25;;
82296;SDS011;71899;51.992;8.648;2023-09-30T01:46:13;28.67;;;5.38;;
82296;SDS011;71899;51.992;8.648;2023-09-30T01:48:39;31.65;;;6.15;;
82296;SDS011;71899;51.992;8.648;2023-09-30T01:51:05;25.63;;;6.05;;
82296;SDS011;71899;51.992;8.648;2023-09-30T01:53:31;35.88;;;6.53;;
82296;SDS011;71899;51.992;8.648;2023-09-30T01:55:57;26.00;;;5.38;;
82296;SDS011;71899;51.992;8.648;2023-09-30T01:58:23;24.52;;;5.78;;
82296;SDS011;71899;51.992;8.648;2023-09-30T02:00:49;23.58;;;5.57;;
82296;SDS011;71899;51.992;8.648;2023-09-30T02:03:15;22.10;;;5.22;;
82296;SDS011;71899;51.992;8.648;2023-09-30T02:05:42;24.17;;;5.88;;
82296;SDS011;71899;51.992;8.648;2023-09-30T02:08:08;25.27;;;6.57;;
82296;SDS011;71899;51.992;8.648;2023-09-30T02:10:33;24.60;;;5.88;;
82296;SDS011;71899;51.992;8.648;2023-09-30T02:12:59;22.92;;;5.65;;
82296;SDS011;71899;51.992;8.648;2023-09-30T02:15:24;31.40;;;6.13;;
82296;SDS011;71899;51.992;8.648;2023-09-30T02:17:50;15.07;;;4.40;;
82296;SDS011;71899;51.992;8.648;2023-09-30T02:20:15;29.27;;;7.43;;
82296;SDS011;71899;51.992;8.648;2023-09-30T02:22:44;23.70;;;4.65;;
82296;SDS011;71899;51.992;8.648;2023-09-30T02:25:11;24.90;;;5.20;;
82296;SDS011;71899;51.992;8.648;2023-09-30T02:27:38;32.75;;;7.63;;
82296;SDS011;71899;51.992;8.648;2023-09-30T02:30:04;24.38;;;6.55;;
82296;SDS011;71899;51.992;8.648;2023-09-30T02:32:31;27.48;;;7.15;;
82296;SDS011;71899;51.992;8.648;2023-09-30T02:34:58;34.60;;;6.50;;
82296;SDS011;71899;51.992;8.648;2023-09-30T02:37:24;20.02;;;6.18;;
82296;SDS011;71899;51.992;8.648;2023-09-30T02:39:50;24.98;;;6.00;;
82296;SDS011;71899;51.992;8.648;2023-09-30T02:42:16;24.65;;;5.65;;
82296;SDS011;71899;51.992;8.648;2023-09-30T02:44:41;20.10;;;5.43;;
82296;SDS011;71899;51.992;8.648;2023-09-30T02:47:08;24.02;;;7.35;;
82296;SDS011;71899;51.992;8.648;2023-09-30T02:49:34;25.08;;;5.80;;
82296;SDS011;71899;51.992;8.648;2023-09-30T02:52:00;25.20;;;7.43;;
82296;SDS011;71899;51.992;8.648;2023-09-30T02:54:26;25.05;;;6.05;;
82296;SDS011;71899;51.992;8.648;2023-09-30T02:56:51;22.52;;;5.53;;
82296;SDS011;71899;51.992;8.648;2023-09-30T02:59:17;26.42;;;5.95;;
82296;SDS011;71899;51.992;8.648;2023-09-30T03:01:43;28.48;;;5.63;;
82296;SDS011;71899;51.992;8.648;2023-09-30T03:04:09;23.60;;;5.00;;
82296;SDS011;71899;51.992;8.648;2023-09-30T03:06:37;25.23;;;7.07;;
82296;SDS011;71899;51.992;8.648;2023-09-30T03:09:04;27.95;;;6.38;;
82296;SDS011;71899;51.992;8.648;2023-09-30T03:11:30;25.23;;;6.32;;
82296;SDS011;71899;51.992;8.648;2023-09-30T03:13:56;24.08;;;5.57;;
82296;SDS011;71899;51.992;8.648;2023-09-30T03:16:22;40.65;;;7.70;;
82296;SDS011;71899;51.992;8.648;2023-09-30T03:18:49;25.17;;;6.13;;
82296;SDS011;71899;51.992;8.648;2023-09-30T03:21:14;20.23;;;6.80;;
82296;SDS011;71899;51.992;8.648;2023-09-30T03:23:40;27.92;;;7.57;;
82296;SDS011;71899;51.992;8.648;2023-09-30T03:26:06;26.33;;;8.05;;
82296;SDS011;71899;51.992;8.648;2023-09-30T03:28:35;24.08;;;6.75;;
82296;SDS011;71899;51.992;8.648;2023-09-30T03:31:01;21.63;;;5.57;;
82296;SDS011;71899;51.992;8.648;2023-09-30T03:33:26;27.38;;;6.68;;
82296;SDS011;71899;51.992;8.648;2023-09-30T03:35:51;24.83;;;5.68;;
82296;SDS011;71899;51.992;8.648;2023-09-30T03:38:17;26.83;;;7.00;;
82296;SDS011;71899;51.992;8.648;2023-09-30T03:40:45;21.10;;;5.72;;
82296;SDS011;71899;51.992;8.648;2023-09-30T03:43:13;23.90;;;5.90;;
82296;SDS011;71899;51.992;8.648;2023-09-30T03:45:39;35.15;;;6.47;;
82296;SDS011;71899;51.992;8.648;2023-09-30T03:48:06;29.38;;;7.03;;
82296;SDS011;71899;51.992;8.648;2023-09-30T03:50:32;29.30;;;6.32;;
82296;SDS011;71899;51.992;8.648;2023-09-30T03:53:04;26.60;;;6.45;;
82296;SDS011;71899;51.992;8.648;2023-09-30T03:55:32;31.52;;;7.78;;
82296;SDS011;71899;51.992;8.648;2023-09-30T03:57:58;29.27;;;6.55;;
82296;SDS011;71899;51.992;8.648;2023-09-30T04:00:24;31.75;;;7.47;;
82296;SDS011;71899;51.992;8.648;2023-09-30T04:02:49;29.92;;;8.02;;
82296;SDS011;71899;51.992;8.648;2023-09-30T04:05:19;36.38;;;7.57;;
82296;SDS011;71899;51.992;8.648;2023-09-30T04:07:49;31.30;;;9.50;;
82296;SDS011;71899;51.992;8.648;2023-09-30T04:10:14;32.03;;;7.75;;
82296;SDS011;71899;51.992;8.648;2023-09-30T04:12:39;32.90;;;8.38;;
82296;SDS011;71899;51.992;8.648;2023-09-30T04:15:05;37.45;;;9.57;;
82296;SDS011;71899;51.992;8.648;2023-09-30T04:17:31;39.00;;;8.43;;
82296;SDS011;71899;51.992;8.648;2023-09-30T04:19:57;34.63;;;9.05;;
82296;SDS011;71899;51.992;8.648;2023-09-30T04:22:22;33.45;;;9.48;;
82296;SDS011;71899;51.992;8.648;2023-09-30T04:24:49;44.95;;;9.65;;
82296;SDS011;71899;51.992;8.648;2023-09-30T04:27:15;41.53;;;10.15;;
82296;SDS011;71899;51.992;8.648;2023-09-30T04:29:41;43.78;;;9.82;;
82296;SDS011;71899;51.992;8.648;2023-09-30T04:32:06;29.33;;;9.13;;
82296;SDS011;71899;51.992;8.648;2023-09-30T04:34:32;34.78;;;9.80;;
82296;SDS011;71899;51.992;8.648;2023-09-30T04:36:57;38.15;;;10.77;;
82296;SDS011;71899;51.992;8.648;2023-09-30T04:39:24;29.20;;;8.63;;
82296;SDS011;71899;51.992;8.648;2023-09-30T04:41:50;32.15;;;9.27;;
82296;SDS011;71899;51.992;8.648;2023-09-30T04:44:15;32.67;;;9.55;;
82296;SDS011;71899;51.992;8.648;2023-09-30T04:46:41;31.88;;;8.63;;
82296;SDS011;71899;51.992;8.648;2023-09-30T04:49:10;33.97;;;11.85;;
82296;SDS011;71899;51.992;8.648;2023-09-30T04:51:36;32.70;;;9.90;;
82296;SDS011;71899;51.992;8.648;2023-09-30T04:54:02;40.78;;;11.13;;
82296;SDS011;71899;51.992;8.648;2023-09-30T04:56:28;31.52;;;10.77;;
82296;SDS011;71899;51.992;8.648;2023-09-30T04:58:54;31.75;;;9.70;;
82296;SDS011;71899;51.992;8.648;2023-09-30T05:01:19;29.05;;;11.18;;
82296;SDS011;71899;51.992;8.648;2023-09-30T05:03:45;41.45;;;10.82;;
82296;SDS011;71899;51.992;8.648;2023-09-30T05:06:13;38.95;;;10.52;;
82296;SDS011;71899;51.992;8.648;2023-09-30T05:08:39;38.80;;;12.55;;
82296;SDS011;71899;51.992;8.648;2023-09-30T05:11:04;30.73;;;11.02;;
82296;SDS011;71899;51.992;8.648;2023-09-30T05:13:29;35.00;;;11.35;;
82296;SDS011;71899;51.992;8.648;2023-09-30T05:15:55;39.85;;;9.90;;
82296;SDS011;71899;51.992;8.648;2023-09-30T05:18:20;28.67;;;9.98;;
82296;SDS011;71899;51.992;8.648;2023-09-30T05:20:48;28.15;;;10.52;;
82296;SDS011;71899;51.992;8.648;2023-09-30T05:23:14;31.02;;;10.77;;
82296;SDS011;71899;51.992;8.648;2023-09-30T05:25:39;31.70;;;10.43;;
82296;SDS011;71899;51.992;8.648;2023-09-30T05:28:05;23.13;;;10.20;;
82296;SDS011;71899;51.992;8.648;2023-09-30T05:30:34;27.88;;;9.82;;
82296;SDS011;71899;51.992;8.648;2023-09-30T05:33:00;30.02;;;11.52;;
82296;SDS011;71899;51.992;8.648;2023-09-30T05:35:25;30.23;;;10.88;;
82296;SDS011;71899;51.992;8.648;2023-09-30T05:37:51;28.90;;;10.80;;
82296;SDS011;71899;51.992;8.648;2023-09-30T05:40:18;31.38;;;10.93;;
82296;SDS011;71899;51.992;8.648;2023-09-30T05:42:47;31.92;;;11.18;;
82296;SDS011;71899;51.992;8.648;2023-09-30T05:45:16;23.00;;;9.23;;
82296;SDS011;71899;51.992;8.648;2023-09-30T05:47:42;34.10;;;8.60;;
82296;SDS011;71899;51.992;8.648;2023-09-30T05:50:07;23.67;;;9.27;;
82296;SDS011;71899;51.992;8.648;2023-09-30T05:52:41;25.90;;;11.20;;
82296;SDS011;71899;51.992;8.648;2023-09-30T05:55:07;29.08;;;9.68;;
82296;SDS011;71899;51.992;8.648;2023-09-30T05:57:32;25.88;;;10.65;;
82296;SDS011;71899;51.992;8.648;2023-09-30T05:59:58;23.13;;;9.77;;
82296;SDS011;71899;51.992;8.648;2023-09-30T06:02:24;24.48;;;11.00;;
82296;SDS011;71899;51.992;8.648;2023-09-30T06:04:50;27.85;;;11.25;;
82296;SDS011;71899;51.992;8.648;2023-09-30T06:07:16;29.42;;;10.77;;
82296;SDS011;71899;51.992;8.648;2023-09-30T06:09:41;22.27;;;10.50;;
82296;SDS011;71899;51.992;8.648;2023-09-30T06:12:06;31.88;;;11.93;;
82296;SDS011;71899;51.992;8.648;2023-09-30T06:14:32;26.52;;;13.05;;
82296;SDS011;71899;51.992;8.648;2023-09-30T06:16:58;36.33;;;13.00;;
82296;SDS011;71899;51.992;8.648;2023-09-30T06:19:24;28.88;;;11.95;;
82296;SDS011;71899;51.992;8.648;2023-09-30T06:21:51;28.77;;;10.88;;
82296;SDS011;71899;51.992;8.648;2023-09-30T06:24:16;32.65;;;12.20;;
82296;SDS011;71899;51.992;8.648;2023-09-30T06:26:44;29.55;;;11.75;;
82296;SDS011;71899;51.992;8.648;2023-09-30T06:29:10;39.67;;;16.38;;
82296;SDS011;71899;51.992;8.648;2023-09-30T06:31:35;39.45;;;14.02;;
82296;SDS011;71899;51.992;8.648;2023-09-30T06:34:00;33.60;;;16.15;;
82296;SDS011;71899;51.992;8.648;2023-09-30T06:36:26;43.30;;;19.52;;
82296;SDS011;71899;51.992;8.648;2023-09-30T06:38:51;52.22;;;19.30;;
82296;SDS011;71899;51.992;8.648;2023-09-30T06:41:17;52.78;;;22.50;;
82296;SDS011;71899;51.992;8.648;2023-09-30T06:43:43;46.83;;;22.63;;
82296;SDS011;71899;51.992;8.648;2023-09-30T06:46:09;36.20;;;18.92;;
82296;SDS011;71899;51.992;8.648;2023-09-30T06:48:34;30.67;;;18.17;;
82296;SDS011;71899;51.992;8.648;2023-09-30T06:51:01;24.85;;;13.55;;
82296;SDS011;71899;51.992;8.648;2023-09-30T06:53:26;17.55;;;10.60;;
82296;SDS011;71899;51.992;8.648;2023-09-30T06:55:52;19.58;;;9.27;;
82296;SDS011;71899;51.992;8.648;2023-09-30T06:58:18;16.25;;;8.70;;
82296;SDS011;71899;51.992;8.648;2023-09-30T07:00:50;19.83;;;9.88;;
82296;SDS011;71899;51.992;8.648;2023-09-30T07:03:16;15.63;;;9.45;;
82296;SDS011;71899;51.992;8.648;2023-09-30T07:05:42;20.85;;;11.25;;
82296;SDS011;71899;51.992;8.648;2023-09-30T07:08:08;18.63;;;9.85;;
82296;SDS011;71899;51.992;8.648;2023-09-30T07:10:34;19.45;;;9.30;;
82296;SDS011;71899;51.992;8.648;2023-09-30T07:13:01;21.38;;;10.23;;
82296;SDS011;71899;51.992;8.648;2023-09-30T07:15:28;18.30;;;8.43;;
82296;SDS011;71899;51.992;8.648;2023-09-30T07:17:53;15.30;;;8.48;;
82296;SDS011;71899;51.992;8.648;2023-09-30T07:20:18;18.20;;;8.13;;
82296;SDS011;71899;51.992;8.648;2023-09-30T07:22:44;15.57;;;8.02;;
82296;SDS011;71899;51.992;8.648;2023-09-30T07:25:10;22.17;;;9.77;;
82296;SDS011;71899;51.992;8.648;2023-09-30T07:27:35;29.27;;;10.83;;
82296;SDS011;71899;51.992;8.648;2023-09-30T07:30:00;17.02;;;9.27;;
82296;SDS011;71899;51.992;8.648;2023-09-30T07:32:26;14.70;;;8.27;;
82296;SDS011;71899;51.992;8.648;2023-09-30T07:34:51;20.90;;;8.07;;
82296;SDS011;71899;51.992;8.648;2023-09-30T07:37:17;21.15;;;7.70;;
82296;SDS011;71899;51.992;8.648;2023-09-30T07:39:43;12.38;;;7.68;;
82296;SDS011;71899;51.992;8.648;2023-09-30T07:42:09;20.88;;;7.53;;
82296;SDS011;71899;51.992;8.648;2023-09-30T07:44:35;19.25;;;7.95;;
82296;SDS011;71899;51.992;8.648;2023-09-30T07:47:02;15.15;;;7.10;;
82296;SDS011;71899;51.992;8.648;2023-09-30T07:49:28;17.67;;;7.75;;
82296;SDS011;71899;51.992;8.648;2023-09-30T07:51:54;15.35;;;8.13;;
82296;SDS011;71899;51.992;8.648;2023-09-30T07:54:20;17.77;;;9.88;;
82296;SDS011;71899;51.992;8.648;2023-09-30T07:56:45;13.50;;;7.40;;
82296;SDS011;71899;51.992;8.648;2023-09-30T07:59:10;14.52;;;6.95;;
82296;SDS011;71899;51.992;8.648;2023-09-30T08:01:36;17.60;;;8.05;;
82296;SDS011;71899;51.992;8.648;2023-09-30T08:04:02;19.42;;;9.73;;
82296;SDS011;71899;51.992;8.648;2023-09-30T08:06:27;16.63;;;7.78;;
82296;SDS011;71899;51.992;8.648;2023-09-30T08:08:53;13.82;;;7.80;;
82296;SDS011;71899;51.992;8.648;2023-09-30T08:11:20;16.65;;;8.13;;
82296;SDS011;71899;51.992;8.648;2023-09-30T08:13:46;13.65;;;7.45;;
82296;SDS011;71899;51.992;8.648;2023-09-30T08:16:11;16.15;;;6.47;;
82296;SDS011;71899;51.992;8.648;2023-09-30T08:18:36;15.23;;;6.50;;
82296;SDS011;71899;51.992;8.648;2023-09-30T08:21:02;16.45;;;7.15;;
82296;SDS011;71899;51.992;8.648;2023-09-30T08:23:27;18.65;;;7.82;;
82296;SDS011;71899;51.992;8.648;2023-09-30T08:25:52;17.15;;;7.93;;
82296;SDS011;71899;51.992;8.648;2023-09-30T08:28:19;17.10;;;9.20;;
82296;SDS011;71899;51.992;8.648;2023-09-30T08:30:44;21.33;;;10.10;;
82296;SDS011;71899;51.992;8.648;2023-09-30T08:33:10;18.05;;;8.88;;
82296;SDS011;71899;51.992;8.648;2023-09-30T08:35:38;12.73;;;8.60;;
82296;SDS011;71899;51.992;8.648;2023-09-30T08:38:04;13.15;;;8.95;;
82296;SDS011;71899;51.992;8.648;2023-09-30T08:40:30;17.13;;;10.50;;
82296;SDS011;71899;51.992;8.648;2023-09-30T08:42:55;17.27;;;9.70;;
82296;SDS011;71899;51.992;8.648;2023-09-30T08:45:21;14.38;;;8.13;;
82296;SDS011;71899;51.992;8.648;2023-09-30T08:47:46;22.30;;;9.50;;
82296;SDS011;71899;51.992;8.648;2023-09-30T08:50:12;14.30;;;7.85;;
82296;SDS011;71899;51.992;8.648;2023-09-30T08:52:39;17.65;;;8.38;;
82296;SDS011;71899;51.992;8.648;2023-09-30T08:55:06;16.27;;;7.63;;
82296;SDS011;71899;51.992;8.648;2023-09-30T08:57:33;19.02;;;8.73;;
82296;SDS011;71899;51.992;8.648;2023-09-30T09:00:02;14.20;;;7.95;;
82296;SDS011;71899;51.992;8.648;2023-09-30T09:02:27;15.68;;;7.82;;
82296;SDS011;71899;51.992;8.648;2023-09-30T09:04:54;12.25;;;6.93;;
82296;SDS011;71899;51.992;8.648;2023-09-30T09:07:19;14.45;;;6.72;;
82296;SDS011;71899;51.992;8.648;2023-09-30T09:12:33;13.02;;;6.88;;
82296;SDS011;71899;51.992;8.648;2023-09-30T09:14:59;14.98;;;6.68;;
82296;SDS011;71899;51.992;8.648;2023-09-30T09:17:25;12.90;;;7.43;;
82296;SDS011;71899;51.992;8.648;2023-09-30T09:20:06;15.25;;;7.80;;
82296;SDS011;71899;51.992;8.648;2023-09-30T09:22:41;18.38;;;7.70;;
82296;SDS011;71899;51.992;8.648;2023-09-30T09:25:07;17.10;;;7.00;;
82296;SDS011;71899;51.992;8.648;2023-09-30T09:27:33;11.73;;;6.25;;
82296;SDS011;71899;51.992;8.648;2023-09-30T09:30:18;14.18;;;5.85;;
82296;SDS011;71899;51.992;8.648;2023-09-30T09:33:02;17.58;;;6.55;;
82296;SDS011;71899;51.992;8.648;2023-09-30T09:35:30;14.40;;;6.95;;
82296;SDS011;71899;51.992;8.648;2023-09-30T09:37:58;13.57;;;5.07;;
82296;SDS011;71899;51.992;8.648;2023-09-30T09:40:32;14.25;;;5.72;;
82296;SDS011;71899;51.992;8.648;2023-09-30T09:43:01;12.13;;;5.57;;
82296;SDS011;71899;51.992;8.648;2023-09-30T09:45:30;10.20;;;5.25;;
82296;SDS011;71899;51.992;8.648;2023-09-30T09:47:58;12.10;;;5.65;;
82296;SDS011;71899;51.992;8.648;2023-09-30T09:50:24;11.85;;;5.55;;
82296;SDS011;71899;51.992;8.648;2023-09-30T09:52:50;10.68;;;5.25;;
82296;SDS011;71899;51.992;8.648;2023-09-30T09:55:17;15.40;;;5.53;;
82296;SDS011;71899;51.992;8.648;2023-09-30T09:57:44;13.80;;;5.60;;
82296;SDS011;71899;51.992;8.648;2023-09-30T10:00:11;10.65;;;5.53;;
82296;SDS011;71899;51.992;8.648;2023-09-30T10:02:43;15.32;;;5.20;;
82296;SDS011;71899;51.992;8.648;2023-09-30T10:05:11;8.75;;;4.75;;
82296;SDS011;71899;51.992;8.648;2023-09-30T10:07:38;10.35;;;5.10;;
82296;SDS011;71899;51.992;8.648;2023-09-30T10:10:10;12.98;;;5.22;;
82296;SDS011;71899;51.992;8.648;2023-09-30T10:12:38;9.32;;;5.90;;
82296;SDS011;71899;51.992;8.648;2023-09-30T10:15:46;12.38;;;4.55;;
82296;SDS011;71899;51.992;8.648;2023-09-30T10:17:56;12.18;;;4.68;;
82296;SDS011;71899;51.992;8.648;2023-09-30T10:20:26;8.50;;;4.22;;
82296;SDS011;71899;51.992;8.648;2023-09-30T10:25:44;14.80;;;5.30;;
82296;SDS011;71899;51.992;8.648;2023-09-30T10:36:31;10.70;;;3.85;;
82296;SDS011;71899;51.992;8.648;2023-09-30T10:38:58;11.25;;;4.60;;
82296;SDS011;71899;51.992;8.648;2023-09-30T10:47:34;9.85;;;3.40;;
82296;SDS011;71899;51.992;8.648;2023-09-30T10:49:49;20.63;;;5.00;;
82296;SDS011;71899;51.992;8.648;2023-09-30T10:52:21;11.85;;;4.07;;
82296;SDS011;71899;51.992;8.648;2023-09-30T10:54:50;13.52;;;4.07;;
82296;SDS011;71899;51.992;8.648;2023-09-30T10:57:37;10.85;;;3.65;;
82296;SDS011;71899;51.992;8.648;2023-09-30T11:02:49;10.73;;;4.90;;
82296;SDS011;71899;51.992;8.648;2023-09-30T11:05:18;10.32;;;3.17;;
82296;SDS011;71899;51.992;8.648;2023-09-30T11:07:46;8.80;;;3.90;;
82296;SDS011;71899;51.992;8.648;2023-09-30T11:10:15;10.88;;;2.53;;
82296;SDS011;71899;51.992;8.648;2023-09-30T11:12:54;6.20;;;2.50;;
82296;SDS011;71899;51.992;8.648;2023-09-30T11:15:21;8.18;;;3.13;;
82296;SDS011;71899;51.992;8.648;2023-09-30T11:17:46;8.00;;;2.28;;
82296;SDS011;71899;51.992;8.648;2023-09-30T11:20:12;10.02;;;4.15;;
82296;SDS011;71899;51.992;8.648;2023-09-30T11:22:37;7.22;;;2.50;;
82296;SDS011;71899;51.992;8.648;2023-09-30T11:25:04;8.48;;;3.00;;
82296;SDS011;71899;51.992;8.648;2023-09-30T11:27:29;11.05;;;3.15;;
82296;SDS011;71899;51.992;8.648;2023-09-30T11:29:56;7.90;;;3.90;;
82296;SDS011;71899;51.992;8.648;2023-09-30T11:32:26;8.32;;;2.85;;
82296;SDS011;71899;51.992;8.648;2023-09-30T11:34:53;8.48;;;3.15;;
82296;SDS011;71899;51.992;8.648;2023-09-30T11:37:19;9.55;;;2.83;;
82296;SDS011;71899;51.992;8.648;2023-09-30T11:39:44;12.35;;;3.42;;
82296;SDS011;71899;51.992;8.648;2023-09-30T11:42:16;11.77;;;3.72;;
82296;SDS011;71899;51.992;8.648;2023-09-30T11:44:46;8.57;;;2.95;;
82296;SDS011;71899;51.992;8.648;2023-09-30T11:47:13;9.20;;;3.60;;
82296;SDS011;71899;51.992;8.648;2023-09-30T11:49:40;10.75;;;3.00;;
82296;SDS011;71899;51.992;8.648;2023-09-30T11:52:12;10.48;;;2.92;;
82296;SDS011;71899;51.992;8.648;2023-09-30T11:54:40;7.20;;;2.92;;
82296;SDS011;71899;51.992;8.648;2023-09-30T11:57:11;7.53;;;2.67;;
82296;SDS011;71899;51.992;8.648;2023-09-30T11:59:40;7.57;;;2.72;;
82296;SDS011;71899;51.992;8.648;2023-09-30T12:02:09;8.68;;;2.88;;
82296;SDS011;71899;51.992;8.648;2023-09-30T12:04:35;6.95;;;2.90;;
82296;SDS011;71899;51.992;8.648;2023-09-30T12:07:04;8.32;;;3.22;;
82296;SDS011;71899;51.992;8.648;2023-09-30T12:09:32;7.63;;;3.20;;
82296;SDS011;71899;51.992;8.648;2023-09-30T12:11:57;8.75;;;3.47;;
82296;SDS011;71899;51.992;8.648;2023-09-30T12:14:25;7.22;;;3.05;;
82296;SDS011;71899;51.992;8.648;2023-09-30T12:16:51;10.15;;;2.90;;
82296;SDS011;71899;51.992;8.648;2023-09-30T12:19:17;12.13;;;3.83;;
82296;SDS011;71899;51.992;8.648;2023-09-30T12:21:43;10.00;;;3.03;;
82296;SDS011;71899;51.992;8.648;2023-09-30T12:24:11;8.05;;;3.40;;
82296;SDS011;71899;51.992;8.648;2023-09-30T12:26:41;9.50;;;3.75;;
82296;SDS011;71899;51.992;8.648;2023-09-30T12:29:07;8.30;;;3.22;;
82296;SDS011;71899;51.992;8.648;2023-09-30T12:31:34;9.23;;;2.90;;
82296;SDS011;71899;51.992;8.648;2023-09-30T12:33:59;9.25;;;3.50;;
82296;SDS011;71899;51.992;8.648;2023-09-30T12:36:25;8.52;;;3.03;;
82296;SDS011;71899;51.992;8.648;2023-09-30T12:38:50;8.10;;;3.28;;
82296;SDS011;71899;51.992;8.648;2023-09-30T12:41:15;7.68;;;4.13;;
82296;SDS011;71899;51.992;8.648;2023-09-30T12:43:41;11.13;;;4.38;;
82296;SDS011;71899;51.992;8.648;2023-09-30T12:46:07;6.80;;;3.08;;
82296;SDS011;71899;51.992;8.648;2023-09-30T12:48:33;11.82;;;5.05;;
82296;SDS011;71899;51.992;8.648;2023-09-30T12:50:59;7.78;;;3.33;;
82296;SDS011;71899;51.992;8.648;2023-09-30T12:53:24;8.40;;;2.92;;
82296;SDS011;71899;51.992;8.648;2023-09-30T12:55:49;6.50;;;2.50;;
82296;SDS011;71899;51.992;8.648;2023-09-30T12:58:15;9.75;;;2.50;;
82296;SDS011;71899;51.992;8.648;2023-09-30T13:00:40;10.30;;;3.00;;
82296;SDS011;71899;51.992;8.648;2023-09-30T13:03:05;7.97;;;3.30;;
82296;SDS011;71899;51.992;8.648;2023-09-30T13:05:32;5.57;;;3.20;;
82296;SDS011;71899;51.992;8.648;2023-09-30T13:07:58;9.98;;;2.85;;
82296;SDS011;71899;51.992;8.648;2023-09-30T13:10:23;8.63;;;2.78;;
82296;SDS011;71899;51.992;8.648;2023-09-30T13:12:49;5.97;;;2.75;;
82296;SDS011;71899;51.992;8.648;2023-09-30T13:15:18;10.68;;;2.97;;
82296;SDS011;71899;51.992;8.648;2023-09-30T13:17:44;9.55;;;3.20;;
82296;SDS011;71899;51.992;8.648;2023-09-30T13:20:10;7.75;;;2.45;;
82296;SDS011;71899;51.992;8.648;2023-09-30T13:22:37;7.65;;;3.03;;
82296;SDS011;71899;51.992;8.648;2023-09-30T13:25:03;8.63;;;2.67;;
82296;SDS011;71899;51.992;8.648;2023-09-30T13:27:37;6.80;;;2.10;;
82296;SDS011;71899;51.992;8.648;2023-09-30T13:30:04;6.88;;;2.78;;
82296;SDS011;71899;51.992;8.648;2023-09-30T13:32:32;8.55;;;2.38;;
82296;SDS011;71899;51.992;8.648;2023-09-30T13:35:00;7.07;;;2.30;;
82296;SDS011;71899;51.992;8.648;2023-09-30T13:37:30;3.90;;;1.83;;
82296;SDS011;71899;51.992;8.648;2023-09-30T13:39:58;5.47;;;1.80;;
82296;SDS011;71899;51.992;8.648;2023-09-30T13:42:29;6.43;;;2.20;;
82296;SDS011;71899;51.992;8.648;2023-09-30T13:44:55;5.28;;;2.17;;
82296;SDS011;71899;51.992;8.648;2023-09-30T13:47:22;5.80;;;2.40;;
82296;SDS011;71899;51.992;8.648;2023-09-30T13:49:48;5.22;;;3.17;;
82296;SDS011;71899;51.992;8.648;2023-09-30T13:52:14;7.78;;;2.30;;
82296;SDS011;71899;51.992;8.648;2023-09-30T13:54:39;8.30;;;2.60;;
82296;SDS011;71899;51.992;8.648;2023-09-30T13:57:05;11.32;;;2.88;;
82296;SDS011;71899;51.992;8.648;2023-09-30T13:59:33;5.30;;;1.92;;
82296;SDS011;71899;51.992;8.648;2023-09-30T14:01:59;12.07;;;2.97;;
82296;SDS011;71899;51.992;8.648;2023-09-30T14:04:25;6.63;;;2.75;;
82296;SDS011;71899;51.992;8.648;2023-09-30T14:06:50;8.13;;;2.20;;
82296;SDS011;71899;51.992;8.648;2023-09-30T14:09:16;7.43;;;2.55;;
82296;SDS011;71899;51.992;8.648;2023-09-30T14:11:41;7.88;;;2.38;;
82296;SDS011;71899;51.992;8.648;2023-09-30T14:14:07;13.05;;;2.55;;
82296;SDS011;71899;51.992;8.648;2023-09-30T14:16:34;9.70;;;2.38;;
82296;SDS011;71899;51.992;8.648;2023-09-30T14:19:00;5.38;;;2.47;;
82296;SDS011;71899;51.992;8.648;2023-09-30T14:21:26;11.27;;;3.15;;
82296;SDS011;71899;51.992;8.648;2023-09-30T14:23:51;8.13;;;3.60;;
82296;SDS011;71899;51.992;8.648;2023-09-30T14:26:17;6.20;;;2.97;;
82296;SDS011;71899;51.992;8.648;2023-09-30T14:28:42;6.18;;;2.10;;
82296;SDS011;71899;51.992;8.648;2023-09-30T14:31:07;6.85;;;2.20;;
82296;SDS011;71899;51.992;8.648;2023-09-30T14:33:32;5.47;;;1.95;;
82296;SDS011;71899;51.992;8.648;2023-09-30T14:35:59;4.63;;;1.83;;
82296;SDS011;71899;51.992;8.648;2023-09-30T14:38:24;11.07;;;2.30;;
82296;SDS011;71899;51.992;8.648;2023-09-30T14:40:50;7.80;;;2.85;;
82296;SDS011;71899;51.992;8.648;2023-09-30T14:43:16;4.72;;;2.13;;
82296;SDS011;71899;51.992;8.648;2023-09-30T14:45:42;8.52;;;2.50;;
82296;SDS011;71899;51.992;8.648;2023-09-30T14:48:08;6.57;;;2.03;;
82296;SDS011;71899;51.992;8.648;2023-09-30T14:50:34;10.88;;;3.05;;
82296;SDS011;71899;51.992;8.648;2023-09-30T14:53:01;6.15;;;2.08;;
82296;SDS011;71899;51.992;8.648;2023-09-30T14:55:27;5.57;;;2.55;;